sensor_id;sensor_type;location;lat;lon;timestamp;P1;durP1;ratioP1;P2;durP2;ratioP2
5167;SDS011;2603;48.918;8.980;2024-03-08T00:02:24;32.53;;;17.83;;
5167;SDS011;2603;48.918;8.980;2024-03-08T00:04:51;31.57;;;16.63;;
5167;SDS011;2603;48.918;8.980;2024-03-08T00:07:17;33.67;;;17.43;;
5167;SDS011;2603;48.918;8.980;2024-03-08T00:09:45;32.47;;;17.77;;
5167;SDS011;2603;48.918;8.980;2024-03-08T00:12:11;31.53;;;18.60;;
5167;SDS011;2603;48.918;8.980;2024-03-08T00:14:38;32.87;;;17.20;;
5167;SDS011;2603;48.918;8.980;2024-03-08T00:17:04;34.60;;;18.47;;
5167;SDS011;2603;48.918;8.980;2024-03-08T00:19:31;30.87;;;17.20;;
5167;SDS011;2603;48.918;8.980;2024-03-08T00:21:57;37.47;;;18.63;;
5167;SDS011;2603;48.918;8.980;2024-03-08T00:24:24;41.30;;;20.70;;
5167;SDS011;2603;48.918;8.980;2024-03-08T00:26:52;29.80;;;16.40;;
5167;SDS011;2603;48.918;8.980;2024-03-08T00:29:19;36.27;;;18.20;;
5167;SDS011;2603;48.918;8.980;2024-03-08T00:31:47;33.07;;;17.50;;
5167;SDS011;2603;48.918;8.980;2024-03-08T00:34:14;31.87;;;16.80;;
5167;SDS011;2603;48.918;8.980;2024-03-08T00:36:41;33.73;;;18.30;;
5167;SDS011;2603;48.918;8.980;2024-03-08T00:39:07;40.93;;;18.80;;
5167;SDS011;2603;48.918;8.980;2024-03-08T00:41:33;42.63;;;20.23;;
5167;SDS011;2603;48.918;8.980;2024-03-08T00:44:01;38.90;;;17.83;;
5167;SDS011;2603;48.918;8.980;2024-03-08T00:46:29;40.27;;;18.40;;
5167;SDS011;2603;48.918;8.980;2024-03-08T00:48:56;35.47;;;18.57;;
5167;SDS011;2603;48.918;8.980;2024-03-08T00:51:23;36.97;;;18.37;;
5167;SDS011;2603;48.918;8.980;2024-03-08T00:53:49;36.80;;;18.07;;
5167;SDS011;2603;48.918;8.980;2024-03-08T00:56:16;38.40;;;19.10;;
5167;SDS011;2603;48.918;8.980;2024-03-08T00:58:42;36.67;;;17.53;;
5167;SDS011;2603;48.918;8.980;2024-03-08T01:01:10;37.40;;;17.67;;
5167;SDS011;2603;48.918;8.980;2024-03-08T01:03:37;34.00;;;18.73;;
5167;SDS011;2603;48.918;8.980;2024-03-08T01:06:03;38.23;;;17.30;;
5167;SDS011;2603;48.918;8.980;2024-03-08T01:08:30;38.80;;;19.93;;
5167;SDS011;2603;48.918;8.980;2024-03-08T01:10:56;35.20;;;18.90;;
5167;SDS011;2603;48.918;8.980;2024-03-08T01:13:23;36.03;;;18.87;;
5167;SDS011;2603;48.918;8.980;2024-03-08T01:15:52;38.50;;;18.60;;
5167;SDS011;2603;48.918;8.980;2024-03-08T01:18:21;35.77;;;18.80;;
5167;SDS011;2603;48.918;8.980;2024-03-08T01:20:47;33.93;;;18.63;;
5167;SDS011;2603;48.918;8.980;2024-03-08T01:23:13;44.63;;;20.27;;
5167;SDS011;2603;48.918;8.980;2024-03-08T01:25:40;39.97;;;19.93;;
5167;SDS011;2603;48.918;8.980;2024-03-08T01:28:09;35.10;;;18.90;;
5167;SDS011;2603;48.918;8.980;2024-03-08T01:30:35;44.03;;;19.97;;
5167;SDS011;2603;48.918;8.980;2024-03-08T01:33:04;36.43;;;20.50;;
5167;SDS011;2603;48.918;8.980;2024-03-08T01:35:32;29.13;;;16.37;;
5167;SDS011;2603;48.918;8.980;2024-03-08T01:37:59;41.20;;;20.83;;
5167;SDS011;2603;48.918;8.980;2024-03-08T01:40:26;35.07;;;18.87;;
5167;SDS011;2603;48.918;8.980;2024-03-08T01:42:52;33.50;;;19.40;;
5167;SDS011;2603;48.918;8.980;2024-03-08T01:45:19;44.73;;;20.50;;
5167;SDS011;2603;48.918;8.980;2024-03-08T01:47:45;37.50;;;20.13;;
5167;SDS011;2603;48.918;8.980;2024-03-08T01:50:13;39.43;;;20.03;;
5167;SDS011;2603;48.918;8.980;2024-03-08T01:52:42;35.27;;;19.87;;
5167;SDS011;2603;48.918;8.980;2024-03-08T01:55:08;39.83;;;20.97;;
5167;SDS011;2603;48.918;8.980;2024-03-08T01:57:35;36.97;;;19.13;;
5167;SDS011;2603;48.918;8.980;2024-03-08T02:00:03;39.00;;;17.30;;
5167;SDS011;2603;48.918;8.980;2024-03-08T02:02:32;38.00;;;20.03;;
5167;SDS011;2603;48.918;8.980;2024-03-08T02:04:59;42.17;;;20.27;;
5167;SDS011;2603;48.918;8.980;2024-03-08T02:07:26;37.30;;;19.70;;
5167;SDS011;2603;48.918;8.980;2024-03-08T02:09:54;36.00;;;19.53;;
5167;SDS011;2603;48.918;8.980;2024-03-08T02:12:20;35.10;;;19.37;;
5167;SDS011;2603;48.918;8.980;2024-03-08T02:14:47;34.50;;;19.10;;
5167;SDS011;2603;48.918;8.980;2024-03-08T02:17:14;30.87;;;17.43;;
5167;SDS011;2603;48.918;8.980;2024-03-08T02:19:40;30.73;;;17.53;;
5167;SDS011;2603;48.918;8.980;2024-03-08T02:22:08;29.90;;;17.60;;
5167;SDS011;2603;48.918;8.980;2024-03-08T02:24:34;30.50;;;17.50;;
5167;SDS011;2603;48.918;8.980;2024-03-08T02:27:01;41.70;;;20.43;;
5167;SDS011;2603;48.918;8.980;2024-03-08T02:29:27;39.50;;;19.00;;
5167;SDS011;2603;48.918;8.980;2024-03-08T02:31:54;36.57;;;19.00;;
5167;SDS011;2603;48.918;8.980;2024-03-08T02:34:22;40.83;;;19.73;;
5167;SDS011;2603;48.918;8.980;2024-03-08T02:36:48;33.63;;;18.20;;
5167;SDS011;2603;48.918;8.980;2024-03-08T02:39:16;36.83;;;19.30;;
5167;SDS011;2603;48.918;8.980;2024-03-08T02:41:44;37.83;;;19.80;;
5167;SDS011;2603;48.918;8.980;2024-03-08T02:44:11;41.90;;;19.70;;
5167;SDS011;2603;48.918;8.980;2024-03-08T02:46:38;40.27;;;20.20;;
5167;SDS011;2603;48.918;8.980;2024-03-08T02:49:04;36.07;;;20.17;;
5167;SDS011;2603;48.918;8.980;2024-03-08T02:51:32;36.50;;;17.70;;
5167;SDS011;2603;48.918;8.980;2024-03-08T02:54:00;37.53;;;19.73;;
5167;SDS011;2603;48.918;8.980;2024-03-08T02:56:28;40.83;;;19.87;;
5167;SDS011;2603;48.918;8.980;2024-03-08T02:58:55;36.73;;;18.63;;
5167;SDS011;2603;48.918;8.980;2024-03-08T03:01:21;40.30;;;19.50;;
5167;SDS011;2603;48.918;8.980;2024-03-08T03:03:48;38.40;;;20.03;;
5167;SDS011;2603;48.918;8.980;2024-03-08T03:06:14;36.17;;;18.70;;
5167;SDS011;2603;48.918;8.980;2024-03-08T03:08:41;36.90;;;20.00;;
5167;SDS011;2603;48.918;8.980;2024-03-08T03:11:10;36.07;;;18.37;;
5167;SDS011;2603;48.918;8.980;2024-03-08T03:13:39;37.40;;;20.03;;
5167;SDS011;2603;48.918;8.980;2024-03-08T03:16:07;40.83;;;19.13;;
5167;SDS011;2603;48.918;8.980;2024-03-08T03:18:35;39.40;;;19.40;;
5167;SDS011;2603;48.918;8.980;2024-03-08T03:21:01;35.10;;;19.87;;
5167;SDS011;2603;48.918;8.980;2024-03-08T03:23:32;44.07;;;21.50;;
5167;SDS011;2603;48.918;8.980;2024-03-08T03:26:00;36.40;;;20.17;;
5167;SDS011;2603;48.918;8.980;2024-03-08T03:28:27;36.67;;;19.30;;
5167;SDS011;2603;48.918;8.980;2024-03-08T03:30:55;35.70;;;19.63;;
5167;SDS011;2603;48.918;8.980;2024-03-08T03:33:23;37.73;;;19.33;;
5167;SDS011;2603;48.918;8.980;2024-03-08T03:35:50;36.30;;;19.17;;
5167;SDS011;2603;48.918;8.980;2024-03-08T03:38:17;37.77;;;19.60;;
5167;SDS011;2603;48.918;8.980;2024-03-08T03:40:45;39.73;;;20.63;;
5167;SDS011;2603;48.918;8.980;2024-03-08T03:43:13;38.33;;;20.50;;
5167;SDS011;2603;48.918;8.980;2024-03-08T03:45:40;40.23;;;20.33;;
5167;SDS011;2603;48.918;8.980;2024-03-08T03:48:08;40.20;;;20.17;;
5167;SDS011;2603;48.918;8.980;2024-03-08T03:50:35;35.97;;;21.07;;
5167;SDS011;2603;48.918;8.980;2024-03-08T03:53:01;40.90;;;20.97;;
5167;SDS011;2603;48.918;8.980;2024-03-08T03:55:29;38.40;;;20.40;;
5167;SDS011;2603;48.918;8.980;2024-03-08T03:57:55;42.27;;;21.77;;
5167;SDS011;2603;48.918;8.980;2024-03-08T04:00:23;43.40;;;20.90;;
5167;SDS011;2603;48.918;8.980;2024-03-08T04:02:52;40.63;;;22.17;;
5167;SDS011;2603;48.918;8.980;2024-03-08T04:05:19;36.57;;;19.80;;
5167;SDS011;2603;48.918;8.980;2024-03-08T04:07:46;40.97;;;20.90;;
5167;SDS011;2603;48.918;8.980;2024-03-08T04:10:12;36.80;;;19.53;;
5167;SDS011;2603;48.918;8.980;2024-03-08T04:12:39;39.63;;;20.73;;
5167;SDS011;2603;48.918;8.980;2024-03-08T04:15:06;55.33;;;30.13;;
5167;SDS011;2603;48.918;8.980;2024-03-08T04:17:33;46.20;;;25.73;;
5167;SDS011;2603;48.918;8.980;2024-03-08T04:20:02;35.93;;;19.73;;
5167;SDS011;2603;48.918;8.980;2024-03-08T04:22:35;48.73;;;24.37;;
5167;SDS011;2603;48.918;8.980;2024-03-08T04:25:02;37.83;;;19.47;;
5167;SDS011;2603;48.918;8.980;2024-03-08T04:27:28;38.37;;;20.60;;
5167;SDS011;2603;48.918;8.980;2024-03-08T04:29:55;39.90;;;20.23;;
5167;SDS011;2603;48.918;8.980;2024-03-08T04:32:22;32.87;;;17.33;;
5167;SDS011;2603;48.918;8.980;2024-03-08T04:34:48;37.23;;;20.27;;
5167;SDS011;2603;48.918;8.980;2024-03-08T04:37:15;37.70;;;20.20;;
5167;SDS011;2603;48.918;8.980;2024-03-08T04:39:44;36.13;;;20.13;;
5167;SDS011;2603;48.918;8.980;2024-03-08T04:42:12;41.50;;;22.40;;
5167;SDS011;2603;48.918;8.980;2024-03-08T04:44:38;41.43;;;25.40;;
5167;SDS011;2603;48.918;8.980;2024-03-08T04:47:05;37.60;;;21.37;;
5167;SDS011;2603;48.918;8.980;2024-03-08T04:49:32;42.80;;;21.97;;
5167;SDS011;2603;48.918;8.980;2024-03-08T04:52:00;37.83;;;21.50;;
5167;SDS011;2603;48.918;8.980;2024-03-08T04:54:28;36.93;;;20.10;;
5167;SDS011;2603;48.918;8.980;2024-03-08T04:56:55;40.47;;;21.63;;
5167;SDS011;2603;48.918;8.980;2024-03-08T04:59:22;38.30;;;21.10;;
5167;SDS011;2603;48.918;8.980;2024-03-08T05:01:49;36.10;;;19.73;;
5167;SDS011;2603;48.918;8.980;2024-03-08T05:04:16;36.77;;;19.67;;
5167;SDS011;2603;48.918;8.980;2024-03-08T05:06:43;49.27;;;23.33;;
5167;SDS011;2603;48.918;8.980;2024-03-08T05:09:09;37.93;;;20.10;;
5167;SDS011;2603;48.918;8.980;2024-03-08T05:11:40;39.03;;;20.27;;
5167;SDS011;2603;48.918;8.980;2024-03-08T05:14:09;37.40;;;21.23;;
5167;SDS011;2603;48.918;8.980;2024-03-08T05:16:35;38.23;;;21.40;;
5167;SDS011;2603;48.918;8.980;2024-03-08T05:19:02;33.97;;;19.23;;
5167;SDS011;2603;48.918;8.980;2024-03-08T05:21:29;41.43;;;20.50;;
5167;SDS011;2603;48.918;8.980;2024-03-08T05:23:55;43.30;;;21.03;;
5167;SDS011;2603;48.918;8.980;2024-03-08T05:26:22;39.23;;;20.63;;
5167;SDS011;2603;48.918;8.980;2024-03-08T05:28:48;35.37;;;21.80;;
5167;SDS011;2603;48.918;8.980;2024-03-08T05:31:19;57.27;;;26.93;;
5167;SDS011;2603;48.918;8.980;2024-03-08T05:33:47;54.63;;;29.40;;
5167;SDS011;2603;48.918;8.980;2024-03-08T05:36:13;56.47;;;26.40;;
5167;SDS011;2603;48.918;8.980;2024-03-08T05:38:41;44.40;;;24.80;;
5167;SDS011;2603;48.918;8.980;2024-03-08T05:41:08;54.40;;;28.03;;
5167;SDS011;2603;48.918;8.980;2024-03-08T05:43:35;49.93;;;26.80;;
5167;SDS011;2603;48.918;8.980;2024-03-08T05:46:01;42.30;;;23.97;;
5167;SDS011;2603;48.918;8.980;2024-03-08T05:48:31;46.00;;;21.63;;
5167;SDS011;2603;48.918;8.980;2024-03-08T05:50:58;46.67;;;21.10;;
5167;SDS011;2603;48.918;8.980;2024-03-08T05:53:24;44.27;;;22.53;;
5167;SDS011;2603;48.918;8.980;2024-03-08T05:55:51;39.33;;;22.50;;
5167;SDS011;2603;48.918;8.980;2024-03-08T05:58:19;39.50;;;21.67;;
5167;SDS011;2603;48.918;8.980;2024-03-08T06:00:45;43.33;;;22.73;;
5167;SDS011;2603;48.918;8.980;2024-03-08T06:03:12;40.90;;;21.10;;
5167;SDS011;2603;48.918;8.980;2024-03-08T06:05:40;37.30;;;20.97;;
5167;SDS011;2603;48.918;8.980;2024-03-08T06:08:07;45.43;;;23.63;;
5167;SDS011;2603;48.918;8.980;2024-03-08T06:10:33;40.40;;;21.67;;
5167;SDS011;2603;48.918;8.980;2024-03-08T06:13:00;42.10;;;21.97;;
5167;SDS011;2603;48.918;8.980;2024-03-08T06:15:27;40.33;;;21.53;;
5167;SDS011;2603;48.918;8.980;2024-03-08T06:17:54;35.17;;;20.80;;
5167;SDS011;2603;48.918;8.980;2024-03-08T06:20:20;42.10;;;21.23;;
5167;SDS011;2603;48.918;8.980;2024-03-08T06:22:52;46.57;;;23.90;;
5167;SDS011;2603;48.918;8.980;2024-03-08T06:25:19;43.03;;;23.20;;
5167;SDS011;2603;48.918;8.980;2024-03-08T06:27:46;46.47;;;22.73;;
5167;SDS011;2603;48.918;8.980;2024-03-08T06:30:13;57.27;;;25.50;;
5167;SDS011;2603;48.918;8.980;2024-03-08T06:32:41;38.27;;;20.47;;
5167;SDS011;2603;48.918;8.980;2024-03-08T06:35:08;53.97;;;24.20;;
5167;SDS011;2603;48.918;8.980;2024-03-08T06:37:35;44.10;;;23.83;;
5167;SDS011;2603;48.918;8.980;2024-03-08T06:40:04;51.10;;;23.40;;
5167;SDS011;2603;48.918;8.980;2024-03-08T06:42:33;112.40;;;39.83;;
5167;SDS011;2603;48.918;8.980;2024-03-08T06:45:00;52.83;;;23.07;;
5167;SDS011;2603;48.918;8.980;2024-03-08T06:47:29;90.47;;;41.60;;
5167;SDS011;2603;48.918;8.980;2024-03-08T06:49:56;63.10;;;36.23;;
5167;SDS011;2603;48.918;8.980;2024-03-08T06:52:22;61.27;;;32.60;;
5167;SDS011;2603;48.918;8.980;2024-03-08T06:54:49;37.73;;;21.67;;
5167;SDS011;2603;48.918;8.980;2024-03-08T06:57:18;37.23;;;19.93;;
5167;SDS011;2603;48.918;8.980;2024-03-08T06:59:47;47.97;;;26.07;;
5167;SDS011;2603;48.918;8.980;2024-03-08T07:02:13;41.83;;;24.07;;
5167;SDS011;2603;48.918;8.980;2024-03-08T07:04:40;39.93;;;22.80;;
5167;SDS011;2603;48.918;8.980;2024-03-08T07:07:06;41.23;;;21.13;;
5167;SDS011;2603;48.918;8.980;2024-03-08T07:09:34;36.97;;;18.67;;
5167;SDS011;2603;48.918;8.980;2024-03-08T07:12:01;39.20;;;18.50;;
5167;SDS011;2603;48.918;8.980;2024-03-08T07:14:29;53.57;;;17.40;;
5167;SDS011;2603;48.918;8.980;2024-03-08T07:16:56;33.20;;;17.70;;
5167;SDS011;2603;48.918;8.980;2024-03-08T07:19:23;39.37;;;19.27;;
5167;SDS011;2603;48.918;8.980;2024-03-08T07:21:50;35.53;;;16.83;;
5167;SDS011;2603;48.918;8.980;2024-03-08T07:24:16;32.37;;;16.00;;
5167;SDS011;2603;48.918;8.980;2024-03-08T07:27:03;38.43;;;18.03;;
5167;SDS011;2603;48.918;8.980;2024-03-08T07:29:31;35.33;;;17.73;;
5167;SDS011;2603;48.918;8.980;2024-03-08T07:31:58;35.93;;;17.77;;
5167;SDS011;2603;48.918;8.980;2024-03-08T07:34:37;32.60;;;16.93;;
5167;SDS011;2603;48.918;8.980;2024-03-08T07:37:05;30.80;;;17.40;;
5167;SDS011;2603;48.918;8.980;2024-03-08T07:39:36;39.60;;;18.00;;
5167;SDS011;2603;48.918;8.980;2024-03-08T07:42:03;33.30;;;16.80;;
5167;SDS011;2603;48.918;8.980;2024-03-08T07:44:29;35.53;;;17.33;;
5167;SDS011;2603;48.918;8.980;2024-03-08T07:46:58;32.67;;;16.93;;
5167;SDS011;2603;48.918;8.980;2024-03-08T07:49:25;31.77;;;16.53;;
5167;SDS011;2603;48.918;8.980;2024-03-08T07:51:51;31.37;;;17.00;;
5167;SDS011;2603;48.918;8.980;2024-03-08T07:54:18;38.83;;;18.47;;
5167;SDS011;2603;48.918;8.980;2024-03-08T07:56:45;30.70;;;18.33;;
5167;SDS011;2603;48.918;8.980;2024-03-08T07:59:11;39.90;;;19.83;;
5167;SDS011;2603;48.918;8.980;2024-03-08T08:01:38;29.33;;;15.90;;
5167;SDS011;2603;48.918;8.980;2024-03-08T08:04:06;30.20;;;15.80;;
5167;SDS011;2603;48.918;8.980;2024-03-08T08:06:37;30.27;;;15.23;;
5167;SDS011;2603;48.918;8.980;2024-03-08T08:09:06;28.33;;;16.73;;
5167;SDS011;2603;48.918;8.980;2024-03-08T08:11:35;28.43;;;16.10;;
5167;SDS011;2603;48.918;8.980;2024-03-08T08:14:01;30.17;;;15.03;;
5167;SDS011;2603;48.918;8.980;2024-03-08T08:16:28;32.67;;;16.70;;
5167;SDS011;2603;48.918;8.980;2024-03-08T08:18:54;33.67;;;16.67;;
5167;SDS011;2603;48.918;8.980;2024-03-08T08:21:22;30.30;;;16.53;;
5167;SDS011;2603;48.918;8.980;2024-03-08T08:23:50;28.83;;;16.50;;
5167;SDS011;2603;48.918;8.980;2024-03-08T08:26:16;31.67;;;17.20;;
5167;SDS011;2603;48.918;8.980;2024-03-08T08:28:43;31.93;;;16.70;;
5167;SDS011;2603;48.918;8.980;2024-03-08T08:31:11;30.10;;;15.90;;
5167;SDS011;2603;48.918;8.980;2024-03-08T08:33:38;31.70;;;15.70;;
5167;SDS011;2603;48.918;8.980;2024-03-08T08:36:05;28.77;;;16.47;;
5167;SDS011;2603;48.918;8.980;2024-03-08T08:38:33;32.43;;;16.87;;
5167;SDS011;2603;48.918;8.980;2024-03-08T08:41:00;32.27;;;17.30;;
5167;SDS011;2603;48.918;8.980;2024-03-08T08:43:27;34.63;;;18.23;;
5167;SDS011;2603;48.918;8.980;2024-03-08T08:45:54;38.40;;;17.83;;
5167;SDS011;2603;48.918;8.980;2024-03-08T08:48:20;31.90;;;16.47;;
5167;SDS011;2603;48.918;8.980;2024-03-08T08:50:47;32.00;;;16.50;;
5167;SDS011;2603;48.918;8.980;2024-03-08T08:53:15;31.30;;;16.80;;
5167;SDS011;2603;48.918;8.980;2024-03-08T08:55:43;28.93;;;15.90;;
5167;SDS011;2603;48.918;8.980;2024-03-08T08:58:10;29.57;;;15.43;;
5167;SDS011;2603;48.918;8.980;2024-03-08T09:00:37;32.63;;;16.30;;
5167;SDS011;2603;48.918;8.980;2024-03-08T09:03:04;27.30;;;16.73;;
5167;SDS011;2603;48.918;8.980;2024-03-08T09:05:31;32.83;;;15.73;;
5167;SDS011;2603;48.918;8.980;2024-03-08T09:07:59;33.27;;;17.00;;
5167;SDS011;2603;48.918;8.980;2024-03-08T09:10:25;30.17;;;16.20;;
5167;SDS011;2603;48.918;8.980;2024-03-08T09:12:54;31.33;;;16.40;;
5167;SDS011;2603;48.918;8.980;2024-03-08T09:15:20;28.50;;;15.40;;
5167;SDS011;2603;48.918;8.980;2024-03-08T09:17:47;27.20;;;14.37;;
5167;SDS011;2603;48.918;8.980;2024-03-08T09:20:14;25.70;;;14.17;;
5167;SDS011;2603;48.918;8.980;2024-03-08T09:22:40;25.67;;;14.47;;
5167;SDS011;2603;48.918;8.980;2024-03-08T09:25:10;27.47;;;14.00;;
5167;SDS011;2603;48.918;8.980;2024-03-08T09:27:36;32.07;;;15.50;;
5167;SDS011;2603;48.918;8.980;2024-03-08T09:30:06;28.23;;;16.00;;
5167;SDS011;2603;48.918;8.980;2024-03-08T09:32:34;34.47;;;16.50;;
5167;SDS011;2603;48.918;8.980;2024-03-08T09:35:01;30.13;;;16.50;;
5167;SDS011;2603;48.918;8.980;2024-03-08T09:37:28;29.40;;;15.53;;
5167;SDS011;2603;48.918;8.980;2024-03-08T09:39:54;30.77;;;15.13;;
5167;SDS011;2603;48.918;8.980;2024-03-08T09:42:21;30.00;;;15.13;;
5167;SDS011;2603;48.918;8.980;2024-03-08T09:44:47;31.63;;;15.27;;
5167;SDS011;2603;48.918;8.980;2024-03-08T09:47:15;34.40;;;16.87;;
5167;SDS011;2603;48.918;8.980;2024-03-08T09:49:44;30.43;;;15.50;;
5167;SDS011;2603;48.918;8.980;2024-03-08T09:52:11;32.80;;;14.17;;
5167;SDS011;2603;48.918;8.980;2024-03-08T09:54:37;31.67;;;16.07;;
5167;SDS011;2603;48.918;8.980;2024-03-08T09:57:04;23.77;;;14.10;;
5167;SDS011;2603;48.918;8.980;2024-03-08T09:59:33;30.03;;;16.13;;
5167;SDS011;2603;48.918;8.980;2024-03-08T10:02:12;27.77;;;15.40;;
5167;SDS011;2603;48.918;8.980;2024-03-08T10:04:42;26.73;;;14.33;;
5167;SDS011;2603;48.918;8.980;2024-03-08T10:07:11;29.93;;;16.30;;
5167;SDS011;2603;48.918;8.980;2024-03-08T10:09:38;29.60;;;15.43;;
5167;SDS011;2603;48.918;8.980;2024-03-08T10:12:04;29.30;;;15.83;;
5167;SDS011;2603;48.918;8.980;2024-03-08T10:14:31;24.43;;;13.43;;
5167;SDS011;2603;48.918;8.980;2024-03-08T10:16:58;28.57;;;15.57;;
5167;SDS011;2603;48.918;8.980;2024-03-08T10:19:26;29.57;;;15.60;;
5167;SDS011;2603;48.918;8.980;2024-03-08T10:21:54;26.00;;;13.70;;
5167;SDS011;2603;48.918;8.980;2024-03-08T10:24:22;29.40;;;14.83;;
5167;SDS011;2603;48.918;8.980;2024-03-08T10:26:51;25.30;;;15.07;;
5167;SDS011;2603;48.918;8.980;2024-03-08T10:29:18;29.10;;;14.40;;
5167;SDS011;2603;48.918;8.980;2024-03-08T10:31:45;27.30;;;15.90;;
5167;SDS011;2603;48.918;8.980;2024-03-08T10:34:11;31.50;;;13.90;;
5167;SDS011;2603;48.918;8.980;2024-03-08T10:36:38;25.47;;;13.17;;
5167;SDS011;2603;48.918;8.980;2024-03-08T10:39:10;28.20;;;14.40;;
5167;SDS011;2603;48.918;8.980;2024-03-08T10:41:41;26.10;;;14.40;;
5167;SDS011;2603;48.918;8.980;2024-03-08T10:44:13;22.43;;;12.20;;
5167;SDS011;2603;48.918;8.980;2024-03-08T10:46:48;27.80;;;14.87;;
5167;SDS011;2603;48.918;8.980;2024-03-08T10:49:25;25.70;;;14.07;;
5167;SDS011;2603;48.918;8.980;2024-03-08T10:51:54;26.57;;;14.77;;
5167;SDS011;2603;48.918;8.980;2024-03-08T10:54:22;30.80;;;14.50;;
5167;SDS011;2603;48.918;8.980;2024-03-08T10:56:49;26.90;;;14.00;;
5167;SDS011;2603;48.918;8.980;2024-03-08T10:59:16;29.27;;;14.17;;
5167;SDS011;2603;48.918;8.980;2024-03-08T11:01:48;25.90;;;13.37;;
5167;SDS011;2603;48.918;8.980;2024-03-08T11:04:19;31.13;;;15.00;;
5167;SDS011;2603;48.918;8.980;2024-03-08T11:06:48;26.53;;;13.87;;
5167;SDS011;2603;48.918;8.980;2024-03-08T11:09:30;23.30;;;12.87;;
5167;SDS011;2603;48.918;8.980;2024-03-08T11:14:47;27.33;;;14.97;;
5167;SDS011;2603;48.918;8.980;2024-03-08T11:17:15;30.00;;;14.83;;
5167;SDS011;2603;48.918;8.980;2024-03-08T11:19:48;28.37;;;15.60;;
5167;SDS011;2603;48.918;8.980;2024-03-08T11:22:22;30.00;;;15.40;;
5167;SDS011;2603;48.918;8.980;2024-03-08T11:24:53;27.17;;;13.03;;
5167;SDS011;2603;48.918;8.980;2024-03-08T11:27:28;27.73;;;14.87;;
5167;SDS011;2603;48.918;8.980;2024-03-08T11:30:06;26.90;;;15.00;;
5167;SDS011;2603;48.918;8.980;2024-03-08T11:32:46;23.13;;;12.83;;
5167;SDS011;2603;48.918;8.980;2024-03-08T11:35:17;23.10;;;13.20;;
5167;SDS011;2603;48.918;8.980;2024-03-08T11:37:48;22.67;;;13.23;;
5167;SDS011;2603;48.918;8.980;2024-03-08T11:40:17;25.00;;;13.57;;
5167;SDS011;2603;48.918;8.980;2024-03-08T11:42:45;23.80;;;14.40;;
5167;SDS011;2603;48.918;8.980;2024-03-08T11:45:13;34.40;;;14.33;;
5167;SDS011;2603;48.918;8.980;2024-03-08T11:47:41;24.27;;;14.00;;
5167;SDS011;2603;48.918;8.980;2024-03-08T11:50:10;26.80;;;14.03;;
5167;SDS011;2603;48.918;8.980;2024-03-08T11:52:37;27.87;;;14.80;;
5167;SDS011;2603;48.918;8.980;2024-03-08T11:55:04;26.10;;;15.30;;
5167;SDS011;2603;48.918;8.980;2024-03-08T11:57:32;24.13;;;13.97;;
5167;SDS011;2603;48.918;8.980;2024-03-08T11:59:59;26.47;;;14.03;;
5167;SDS011;2603;48.918;8.980;2024-03-08T12:02:33;30.53;;;13.47;;
5167;SDS011;2603;48.918;8.980;2024-03-08T12:05:03;27.07;;;14.93;;
5167;SDS011;2603;48.918;8.980;2024-03-08T12:07:34;34.60;;;15.03;;
5167;SDS011;2603;48.918;8.980;2024-03-08T12:10:14;26.60;;;14.27;;
5167;SDS011;2603;48.918;8.980;2024-03-08T12:12:47;31.03;;;14.90;;
5167;SDS011;2603;48.918;8.980;2024-03-08T12:15:16;27.77;;;14.23;;
5167;SDS011;2603;48.918;8.980;2024-03-08T12:17:44;29.90;;;14.97;;
5167;SDS011;2603;48.918;8.980;2024-03-08T12:20:15;28.90;;;15.10;;
5167;SDS011;2603;48.918;8.980;2024-03-08T12:22:42;26.97;;;15.03;;
5167;SDS011;2603;48.918;8.980;2024-03-08T12:25:09;34.93;;;17.03;;
5167;SDS011;2603;48.918;8.980;2024-03-08T12:27:37;31.17;;;17.07;;
5167;SDS011;2603;48.918;8.980;2024-03-08T12:32:54;30.00;;;16.20;;
5167;SDS011;2603;48.918;8.980;2024-03-08T12:35:25;25.17;;;13.90;;
5167;SDS011;2603;48.918;8.980;2024-03-08T12:37:52;35.27;;;16.40;;
5167;SDS011;2603;48.918;8.980;2024-03-08T12:40:25;32.87;;;15.70;;
5167;SDS011;2603;48.918;8.980;2024-03-08T12:42:53;28.13;;;15.67;;
5167;SDS011;2603;48.918;8.980;2024-03-08T12:45:22;28.37;;;14.40;;
5167;SDS011;2603;48.918;8.980;2024-03-08T12:47:49;23.60;;;12.63;;
5167;SDS011;2603;48.918;8.980;2024-03-08T12:50:16;26.50;;;14.60;;
5167;SDS011;2603;48.918;8.980;2024-03-08T12:52:43;24.43;;;13.20;;
5167;SDS011;2603;48.918;8.980;2024-03-08T12:55:10;27.60;;;15.20;;
5167;SDS011;2603;48.918;8.980;2024-03-08T12:57:37;32.63;;;15.47;;
5167;SDS011;2603;48.918;8.980;2024-03-08T13:00:04;29.07;;;17.00;;
5167;SDS011;2603;48.918;8.980;2024-03-08T13:02:36;30.43;;;15.20;;
5167;SDS011;2603;48.918;8.980;2024-03-08T13:05:03;29.93;;;14.63;;
5167;SDS011;2603;48.918;8.980;2024-03-08T13:07:32;29.63;;;15.40;;
5167;SDS011;2603;48.918;8.980;2024-03-08T13:10:00;28.47;;;15.17;;
5167;SDS011;2603;48.918;8.980;2024-03-08T13:12:31;33.10;;;16.83;;
5167;SDS011;2603;48.918;8.980;2024-03-08T13:14:58;32.47;;;15.27;;
5167;SDS011;2603;48.918;8.980;2024-03-08T13:17:24;31.63;;;16.20;;
5167;SDS011;2603;48.918;8.980;2024-03-08T13:19:53;27.23;;;15.43;;
5167;SDS011;2603;48.918;8.980;2024-03-08T13:22:22;24.77;;;13.47;;
5167;SDS011;2603;48.918;8.980;2024-03-08T13:24:49;35.67;;;16.77;;
5167;SDS011;2603;48.918;8.980;2024-03-08T13:27:18;25.70;;;14.50;;
5167;SDS011;2603;48.918;8.980;2024-03-08T13:29:48;31.60;;;16.33;;
5167;SDS011;2603;48.918;8.980;2024-03-08T13:32:15;32.03;;;16.63;;
5167;SDS011;2603;48.918;8.980;2024-03-08T13:34:42;28.77;;;16.40;;
5167;SDS011;2603;48.918;8.980;2024-03-08T13:37:11;26.60;;;14.60;;
5167;SDS011;2603;48.918;8.980;2024-03-08T13:39:41;27.90;;;15.13;;
5167;SDS011;2603;48.918;8.980;2024-03-08T13:42:09;31.20;;;18.20;;
5167;SDS011;2603;48.918;8.980;2024-03-08T13:44:38;31.47;;;15.90;;
5167;SDS011;2603;48.918;8.980;2024-03-08T13:47:07;25.80;;;12.97;;
5167;SDS011;2603;48.918;8.980;2024-03-08T13:49:33;33.70;;;15.70;;
5167;SDS011;2603;48.918;8.980;2024-03-08T13:52:01;32.63;;;16.83;;
5167;SDS011;2603;48.918;8.980;2024-03-08T13:54:30;45.80;;;14.90;;
5167;SDS011;2603;48.918;8.980;2024-03-08T13:56:57;32.80;;;15.90;;
5167;SDS011;2603;48.918;8.980;2024-03-08T13:59:24;24.23;;;14.07;;
5167;SDS011;2603;48.918;8.980;2024-03-08T14:01:54;29.23;;;15.90;;
5167;SDS011;2603;48.918;8.980;2024-03-08T14:04:22;27.80;;;14.70;;
5167;SDS011;2603;48.918;8.980;2024-03-08T14:06:49;30.93;;;17.07;;
5167;SDS011;2603;48.918;8.980;2024-03-08T14:09:16;30.07;;;14.77;;
5167;SDS011;2603;48.918;8.980;2024-03-08T14:11:45;27.00;;;14.57;;
5167;SDS011;2603;48.918;8.980;2024-03-08T14:14:11;29.23;;;14.33;;
5167;SDS011;2603;48.918;8.980;2024-03-08T14:16:38;34.60;;;14.80;;
5167;SDS011;2603;48.918;8.980;2024-03-08T14:19:05;23.53;;;12.63;;
5167;SDS011;2603;48.918;8.980;2024-03-08T14:21:31;27.17;;;13.67;;
5167;SDS011;2603;48.918;8.980;2024-03-08T14:23:58;27.60;;;14.87;;
5167;SDS011;2603;48.918;8.980;2024-03-08T14:26:25;26.43;;;14.20;;
5167;SDS011;2603;48.918;8.980;2024-03-08T14:28:56;29.10;;;15.00;;
5167;SDS011;2603;48.918;8.980;2024-03-08T14:31:23;28.47;;;14.60;;
5167;SDS011;2603;48.918;8.980;2024-03-08T14:33:50;27.40;;;14.70;;
5167;SDS011;2603;48.918;8.980;2024-03-08T14:36:18;26.50;;;13.43;;
5167;SDS011;2603;48.918;8.980;2024-03-08T14:38:44;29.27;;;14.90;;
5167;SDS011;2603;48.918;8.980;2024-03-08T14:41:12;29.07;;;16.20;;
5167;SDS011;2603;48.918;8.980;2024-03-08T14:43:38;31.10;;;14.63;;
5167;SDS011;2603;48.918;8.980;2024-03-08T14:46:06;37.60;;;15.30;;
5167;SDS011;2603;48.918;8.980;2024-03-08T14:48:33;20.90;;;12.27;;
5167;SDS011;2603;48.918;8.980;2024-03-08T14:51:02;25.37;;;14.47;;
5167;SDS011;2603;48.918;8.980;2024-03-08T14:53:29;24.07;;;12.87;;
5167;SDS011;2603;48.918;8.980;2024-03-08T14:55:56;25.13;;;13.90;;
5167;SDS011;2603;48.918;8.980;2024-03-08T14:58:22;28.83;;;13.93;;